sensor_id;sensor_type;location;lat;lon;timestamp;P1;durP1;ratioP1;P2;durP2;ratioP2
2462;SDS011;1243;54.298;10.172;2023-08-07T00:00:38;3.83;;;2.57;;
2462;SDS011;1243;54.298;10.172;2023-08-07T00:03:04;4.60;;;1.80;;
2462;SDS011;1243;54.298;10.172;2023-08-07T00:05:30;2.47;;;2.13;;
2462;SDS011;1243;54.298;10.172;2023-08-07T00:07:55;3.07;;;2.50;;
2462;SDS011;1243;54.298;10.172;2023-08-07T00:10:22;2.20;;;2.00;;
2462;SDS011;1243;54.298;10.172;2023-08-07T00:12:47;4.27;;;2.00;;
2462;SDS011;1243;54.298;10.172;2023-08-07T00:15:13;4.40;;;1.97;;
2462;SDS011;1243;54.298;10.172;2023-08-07T00:17:39;2.20;;;2.10;;
2462;SDS011;1243;54.298;10.172;2023-08-07T00:20:06;2.20;;;2.10;;
2462;SDS011;1243;54.298;10.172;2023-08-07T00:22:32;3.30;;;2.47;;
2462;SDS011;1243;54.298;10.172;2023-08-07T00:24:58;3.90;;;1.97;;
2462;SDS011;1243;54.298;10.172;2023-08-07T00:27:24;6.30;;;2.40;;
2462;SDS011;1243;54.298;10.172;2023-08-07T00:29:49;4.60;;;2.80;;
2462;SDS011;1243;54.298;10.172;2023-08-07T00:32:15;2.50;;;2.33;;
2462;SDS011;1243;54.298;10.172;2023-08-07T00:34:41;1.90;;;1.80;;
2462;SDS011;1243;54.298;10.172;2023-08-07T00:37:07;4.50;;;2.27;;
2462;SDS011;1243;54.298;10.172;2023-08-07T00:39:32;2.10;;;1.93;;
2462;SDS011;1243;54.298;10.172;2023-08-07T00:41:58;3.63;;;2.70;;
2462;SDS011;1243;54.298;10.172;2023-08-07T00:44:24;5.67;;;2.30;;
2462;SDS011;1243;54.298;10.172;2023-08-07T00:46:49;2.93;;;2.03;;
2462;SDS011;1243;54.298;10.172;2023-08-07T00:49:15;2.53;;;2.33;;
2462;SDS011;1243;54.298;10.172;2023-08-07T00:51:43;2.77;;;1.90;;
2462;SDS011;1243;54.298;10.172;2023-08-07T00:54:09;2.60;;;2.37;;
2462;SDS011;1243;54.298;10.172;2023-08-07T00:56:37;2.63;;;2.40;;
2462;SDS011;1243;54.298;10.172;2023-08-07T00:59:04;2.20;;;2.10;;
2462;SDS011;1243;54.298;10.172;2023-08-07T01:01:30;4.20;;;2.20;;
2462;SDS011;1243;54.298;10.172;2023-08-07T01:03:55;2.10;;;2.00;;
2462;SDS011;1243;54.298;10.172;2023-08-07T01:06:21;2.13;;;2.00;;
2462;SDS011;1243;54.298;10.172;2023-08-07T01:08:47;2.50;;;2.30;;
2462;SDS011;1243;54.298;10.172;2023-08-07T01:11:34;2.53;;;2.30;;
2462;SDS011;1243;54.298;10.172;2023-08-07T01:14:22;4.70;;;3.70;;
2462;SDS011;1243;54.298;10.172;2023-08-07T01:19:28;3.80;;;1.97;;
2462;SDS011;1243;54.298;10.172;2023-08-07T01:24:49;2.27;;;2.07;;
2462;SDS011;1243;54.298;10.172;2023-08-07T01:30:11;2.03;;;1.90;;
2462;SDS011;1243;54.298;10.172;2023-08-07T01:35:36;4.70;;;2.07;;
2462;SDS011;1243;54.298;10.172;2023-08-07T01:38:10;2.57;;;1.97;;
2462;SDS011;1243;54.298;10.172;2023-08-07T01:40:37;2.20;;;2.00;;
2462;SDS011;1243;54.298;10.172;2023-08-07T01:43:04;2.10;;;2.00;;
2462;SDS011;1243;54.298;10.172;2023-08-07T01:45:30;3.93;;;2.57;;
2462;SDS011;1243;54.298;10.172;2023-08-07T01:47:56;2.63;;;1.90;;
2462;SDS011;1243;54.298;10.172;2023-08-07T01:50:22;2.40;;;2.20;;
2462;SDS011;1243;54.298;10.172;2023-08-07T01:52:48;2.60;;;2.37;;
2462;SDS011;1243;54.298;10.172;2023-08-07T01:55:15;2.50;;;2.07;;
2462;SDS011;1243;54.298;10.172;2023-08-07T01:57:41;2.70;;;2.50;;
2462;SDS011;1243;54.298;10.172;2023-08-07T02:00:07;2.30;;;2.10;;
2462;SDS011;1243;54.298;10.172;2023-08-07T02:02:34;3.87;;;2.30;;
2462;SDS011;1243;54.298;10.172;2023-08-07T02:05:00;2.67;;;2.47;;
2462;SDS011;1243;54.298;10.172;2023-08-07T02:07:26;7.37;;;2.37;;
2462;SDS011;1243;54.298;10.172;2023-08-07T02:09:51;3.43;;;2.23;;
2462;SDS011;1243;54.298;10.172;2023-08-07T02:12:17;2.43;;;2.23;;
2462;SDS011;1243;54.298;10.172;2023-08-07T02:14:43;2.77;;;2.40;;
2462;SDS011;1243;54.298;10.172;2023-08-07T02:17:09;2.73;;;2.53;;
2462;SDS011;1243;54.298;10.172;2023-08-07T02:19:34;3.57;;;2.73;;
2462;SDS011;1243;54.298;10.172;2023-08-07T02:22:00;4.13;;;2.40;;
2462;SDS011;1243;54.298;10.172;2023-08-07T02:24:26;1.83;;;1.67;;
2462;SDS011;1243;54.298;10.172;2023-08-07T02:26:52;2.13;;;1.97;;
2462;SDS011;1243;54.298;10.172;2023-08-07T02:29:18;3.50;;;2.40;;
2462;SDS011;1243;54.298;10.172;2023-08-07T02:31:43;2.93;;;2.60;;
2462;SDS011;1243;54.298;10.172;2023-08-07T02:34:09;3.90;;;2.80;;
2462;SDS011;1243;54.298;10.172;2023-08-07T02:36:35;3.60;;;2.20;;
2462;SDS011;1243;54.298;10.172;2023-08-07T02:39:01;3.53;;;1.87;;
2462;SDS011;1243;54.298;10.172;2023-08-07T02:41:26;15.33;;;2.53;;
2462;SDS011;1243;54.298;10.172;2023-08-07T02:43:52;3.00;;;2.23;;
2462;SDS011;1243;54.298;10.172;2023-08-07T02:46:18;2.40;;;2.20;;
2462;SDS011;1243;54.298;10.172;2023-08-07T02:48:44;4.00;;;2.90;;
2462;SDS011;1243;54.298;10.172;2023-08-07T02:51:09;4.90;;;2.50;;
2462;SDS011;1243;54.298;10.172;2023-08-07T02:53:35;6.43;;;3.03;;
2462;SDS011;1243;54.298;10.172;2023-08-07T02:56:01;6.90;;;2.73;;
2462;SDS011;1243;54.298;10.172;2023-08-07T02:58:27;3.20;;;2.80;;
2462;SDS011;1243;54.298;10.172;2023-08-07T03:00:53;3.13;;;2.93;;
2462;SDS011;1243;54.298;10.172;2023-08-07T03:03:18;3.67;;;3.10;;
2462;SDS011;1243;54.298;10.172;2023-08-07T03:05:50;3.50;;;2.73;;
2462;SDS011;1243;54.298;10.172;2023-08-07T03:08:16;9.90;;;3.07;;
2462;SDS011;1243;54.298;10.172;2023-08-07T03:10:49;2.30;;;2.10;;
2462;SDS011;1243;54.298;10.172;2023-08-07T03:13:18;3.70;;;3.13;;
2462;SDS011;1243;54.298;10.172;2023-08-07T03:15:44;5.27;;;3.73;;
2462;SDS011;1243;54.298;10.172;2023-08-07T03:18:09;3.10;;;2.80;;
2462;SDS011;1243;54.298;10.172;2023-08-07T03:20:36;6.20;;;2.93;;
2462;SDS011;1243;54.298;10.172;2023-08-07T03:23:02;3.83;;;2.63;;
2462;SDS011;1243;54.298;10.172;2023-08-07T03:25:28;4.60;;;2.40;;
2462;SDS011;1243;54.298;10.172;2023-08-07T03:27:53;5.00;;;2.53;;
2462;SDS011;1243;54.298;10.172;2023-08-07T03:30:19;3.17;;;2.87;;
2462;SDS011;1243;54.298;10.172;2023-08-07T03:32:45;5.43;;;3.03;;
2462;SDS011;1243;54.298;10.172;2023-08-07T03:35:11;3.57;;;2.23;;
2462;SDS011;1243;54.298;10.172;2023-08-07T03:37:36;2.33;;;2.13;;
2462;SDS011;1243;54.298;10.172;2023-08-07T03:40:02;4.57;;;2.70;;
2462;SDS011;1243;54.298;10.172;2023-08-07T03:42:28;4.40;;;2.87;;
2462;SDS011;1243;54.298;10.172;2023-08-07T03:44:54;2.57;;;2.20;;
2462;SDS011;1243;54.298;10.172;2023-08-07T03:47:20;5.23;;;2.50;;
2462;SDS011;1243;54.298;10.172;2023-08-07T03:49:45;3.33;;;2.60;;
2462;SDS011;1243;54.298;10.172;2023-08-07T03:52:11;4.80;;;2.43;;
2462;SDS011;1243;54.298;10.172;2023-08-07T03:54:37;7.60;;;3.10;;
2462;SDS011;1243;54.298;10.172;2023-08-07T03:57:02;4.87;;;2.67;;
2462;SDS011;1243;54.298;10.172;2023-08-07T03:59:28;5.00;;;2.30;;
2462;SDS011;1243;54.298;10.172;2023-08-07T04:01:54;4.93;;;2.73;;
2462;SDS011;1243;54.298;10.172;2023-08-07T04:04:20;4.60;;;2.50;;
2462;SDS011;1243;54.298;10.172;2023-08-07T04:06:45;5.60;;;2.63;;
2462;SDS011;1243;54.298;10.172;2023-08-07T04:09:11;3.47;;;2.67;;
2462;SDS011;1243;54.298;10.172;2023-08-07T04:11:37;3.90;;;2.33;;
2462;SDS011;1243;54.298;10.172;2023-08-07T04:14:03;4.00;;;2.07;;
2462;SDS011;1243;54.298;10.172;2023-08-07T04:16:29;2.60;;;2.30;;
2462;SDS011;1243;54.298;10.172;2023-08-07T04:18:56;3.03;;;2.30;;
2462;SDS011;1243;54.298;10.172;2023-08-07T04:21:22;5.77;;;2.63;;
2462;SDS011;1243;54.298;10.172;2023-08-07T04:23:48;5.40;;;2.80;;
2462;SDS011;1243;54.298;10.172;2023-08-07T04:26:13;8.27;;;3.10;;
2462;SDS011;1243;54.298;10.172;2023-08-07T04:28:39;6.40;;;2.77;;
2462;SDS011;1243;54.298;10.172;2023-08-07T04:31:05;2.97;;;2.20;;
2462;SDS011;1243;54.298;10.172;2023-08-07T04:33:31;6.77;;;3.47;;
2462;SDS011;1243;54.298;10.172;2023-08-07T04:35:57;4.07;;;2.27;;
2462;SDS011;1243;54.298;10.172;2023-08-07T04:38:22;7.90;;;2.13;;
2462;SDS011;1243;54.298;10.172;2023-08-07T04:40:49;4.00;;;2.50;;
2462;SDS011;1243;54.298;10.172;2023-08-07T04:43:15;3.27;;;2.97;;
2462;SDS011;1243;54.298;10.172;2023-08-07T04:45:42;6.87;;;2.20;;
2462;SDS011;1243;54.298;10.172;2023-08-07T04:48:10;7.47;;;2.13;;
2462;SDS011;1243;54.298;10.172;2023-08-07T04:50:39;4.10;;;2.50;;
2462;SDS011;1243;54.298;10.172;2023-08-07T04:53:05;3.70;;;2.40;;
2462;SDS011;1243;54.298;10.172;2023-08-07T04:55:32;5.17;;;2.60;;
2462;SDS011;1243;54.298;10.172;2023-08-07T04:57:58;3.33;;;2.50;;
2462;SDS011;1243;54.298;10.172;2023-08-07T05:00:24;10.43;;;4.00;;
2462;SDS011;1243;54.298;10.172;2023-08-07T05:02:49;4.60;;;2.20;;
2462;SDS011;1243;54.298;10.172;2023-08-07T05:05:16;4.07;;;2.23;;
2462;SDS011;1243;54.298;10.172;2023-08-07T05:07:42;4.80;;;2.43;;
2462;SDS011;1243;54.298;10.172;2023-08-07T05:10:08;6.20;;;2.67;;
2462;SDS011;1243;54.298;10.172;2023-08-07T05:12:35;4.67;;;2.20;;
2462;SDS011;1243;54.298;10.172;2023-08-07T05:15:01;2.97;;;2.70;;
2462;SDS011;1243;54.298;10.172;2023-08-07T05:17:26;6.23;;;2.87;;
2462;SDS011;1243;54.298;10.172;2023-08-07T05:19:52;5.37;;;2.40;;
2462;SDS011;1243;54.298;10.172;2023-08-07T05:22:18;5.47;;;2.67;;
2462;SDS011;1243;54.298;10.172;2023-08-07T05:24:44;3.93;;;2.40;;
2462;SDS011;1243;54.298;10.172;2023-08-07T05:27:10;5.23;;;2.73;;
2462;SDS011;1243;54.298;10.172;2023-08-07T05:29:36;10.60;;;3.40;;
2462;SDS011;1243;54.298;10.172;2023-08-07T05:32:17;5.43;;;2.80;;
2462;SDS011;1243;54.298;10.172;2023-08-07T05:34:43;5.73;;;2.53;;
2462;SDS011;1243;54.298;10.172;2023-08-07T05:37:08;6.57;;;2.30;;
2462;SDS011;1243;54.298;10.172;2023-08-07T05:39:34;5.77;;;2.57;;
2462;SDS011;1243;54.298;10.172;2023-08-07T05:42:00;7.53;;;3.20;;
2462;SDS011;1243;54.298;10.172;2023-08-07T05:44:26;11.80;;;2.90;;
2462;SDS011;1243;54.298;10.172;2023-08-07T05:46:52;6.77;;;3.73;;
2462;SDS011;1243;54.298;10.172;2023-08-07T05:49:18;8.90;;;2.63;;
2462;SDS011;1243;54.298;10.172;2023-08-07T05:51:45;9.87;;;3.50;;
2462;SDS011;1243;54.298;10.172;2023-08-07T05:54:11;7.63;;;3.50;;
2462;SDS011;1243;54.298;10.172;2023-08-07T05:56:36;8.10;;;3.73;;
2462;SDS011;1243;54.298;10.172;2023-08-07T05:59:03;6.93;;;3.20;;
2462;SDS011;1243;54.298;10.172;2023-08-07T06:01:29;8.47;;;3.77;;
2462;SDS011;1243;54.298;10.172;2023-08-07T06:03:59;12.90;;;3.27;;
2462;SDS011;1243;54.298;10.172;2023-08-07T06:06:25;15.97;;;3.87;;
2462;SDS011;1243;54.298;10.172;2023-08-07T06:08:53;9.73;;;3.60;;
2462;SDS011;1243;54.298;10.172;2023-08-07T06:11:19;6.20;;;2.93;;
2462;SDS011;1243;54.298;10.172;2023-08-07T06:13:45;5.83;;;3.20;;
2462;SDS011;1243;54.298;10.172;2023-08-07T06:16:10;10.77;;;3.33;;
2462;SDS011;1243;54.298;10.172;2023-08-07T06:18:36;8.37;;;3.20;;
2462;SDS011;1243;54.298;10.172;2023-08-07T06:21:02;7.20;;;3.03;;
2462;SDS011;1243;54.298;10.172;2023-08-07T06:23:29;8.90;;;3.47;;
2462;SDS011;1243;54.298;10.172;2023-08-07T06:25:55;15.00;;;3.30;;
2462;SDS011;1243;54.298;10.172;2023-08-07T06:28:22;11.10;;;4.70;;
2462;SDS011;1243;54.298;10.172;2023-08-07T06:30:47;10.43;;;4.17;;
2462;SDS011;1243;54.298;10.172;2023-08-07T06:33:13;8.90;;;4.50;;
2462;SDS011;1243;54.298;10.172;2023-08-07T06:35:39;10.30;;;3.20;;
2462;SDS011;1243;54.298;10.172;2023-08-07T06:38:05;20.50;;;3.63;;
2462;SDS011;1243;54.298;10.172;2023-08-07T06:40:31;7.83;;;3.13;;
2462;SDS011;1243;54.298;10.172;2023-08-07T06:42:56;13.67;;;3.73;;
2462;SDS011;1243;54.298;10.172;2023-08-07T06:45:22;21.53;;;3.90;;
2462;SDS011;1243;54.298;10.172;2023-08-07T06:47:48;6.43;;;3.40;;
2462;SDS011;1243;54.298;10.172;2023-08-07T06:50:14;13.13;;;3.30;;
2462;SDS011;1243;54.298;10.172;2023-08-07T06:52:40;7.00;;;3.33;;
2462;SDS011;1243;54.298;10.172;2023-08-07T06:55:06;16.57;;;4.33;;
2462;SDS011;1243;54.298;10.172;2023-08-07T06:57:32;11.37;;;4.17;;
2462;SDS011;1243;54.298;10.172;2023-08-07T06:59:58;11.00;;;3.53;;
2462;SDS011;1243;54.298;10.172;2023-08-07T07:02:24;7.33;;;4.33;;
2462;SDS011;1243;54.298;10.172;2023-08-07T07:04:49;7.60;;;3.20;;
2462;SDS011;1243;54.298;10.172;2023-08-07T07:07:15;10.57;;;2.80;;
2462;SDS011;1243;54.298;10.172;2023-08-07T07:09:41;10.67;;;4.07;;
2462;SDS011;1243;54.298;10.172;2023-08-07T07:12:07;5.70;;;3.77;;
2462;SDS011;1243;54.298;10.172;2023-08-07T07:14:33;10.63;;;3.00;;
2462;SDS011;1243;54.298;10.172;2023-08-07T07:16:59;7.73;;;3.60;;
2462;SDS011;1243;54.298;10.172;2023-08-07T07:19:25;6.70;;;3.97;;
2462;SDS011;1243;54.298;10.172;2023-08-07T07:21:51;12.77;;;3.50;;
2462;SDS011;1243;54.298;10.172;2023-08-07T07:24:18;10.97;;;3.13;;
2462;SDS011;1243;54.298;10.172;2023-08-07T07:26:44;10.27;;;3.40;;
2462;SDS011;1243;54.298;10.172;2023-08-07T07:29:10;5.33;;;3.30;;
2462;SDS011;1243;54.298;10.172;2023-08-07T07:31:35;9.13;;;3.10;;
2462;SDS011;1243;54.298;10.172;2023-08-07T07:34:01;7.30;;;3.57;;
2462;SDS011;1243;54.298;10.172;2023-08-07T07:36:27;16.43;;;4.13;;
2462;SDS011;1243;54.298;10.172;2023-08-07T07:38:53;13.73;;;5.10;;
2462;SDS011;1243;54.298;10.172;2023-08-07T07:41:19;6.73;;;4.57;;
2462;SDS011;1243;54.298;10.172;2023-08-07T07:43:45;9.87;;;3.40;;
2462;SDS011;1243;54.298;10.172;2023-08-07T07:46:12;8.33;;;3.60;;
2462;SDS011;1243;54.298;10.172;2023-08-07T07:48:37;19.03;;;3.80;;
2462;SDS011;1243;54.298;10.172;2023-08-07T07:51:03;10.97;;;3.50;;
2462;SDS011;1243;54.298;10.172;2023-08-07T07:53:29;12.33;;;5.17;;
2462;SDS011;1243;54.298;10.172;2023-08-07T07:55:56;13.67;;;3.63;;
2462;SDS011;1243;54.298;10.172;2023-08-07T07:58:22;8.13;;;4.80;;
2462;SDS011;1243;54.298;10.172;2023-08-07T08:00:48;12.57;;;4.20;;
2462;SDS011;1243;54.298;10.172;2023-08-07T08:03:14;8.80;;;4.13;;
2462;SDS011;1243;54.298;10.172;2023-08-07T08:05:40;14.47;;;3.97;;
2462;SDS011;1243;54.298;10.172;2023-08-07T08:08:06;8.83;;;2.93;;
2462;SDS011;1243;54.298;10.172;2023-08-07T08:10:33;16.60;;;4.47;;
2462;SDS011;1243;54.298;10.172;2023-08-07T08:12:59;8.53;;;3.40;;
2462;SDS011;1243;54.298;10.172;2023-08-07T08:15:25;8.97;;;3.70;;
2462;SDS011;1243;54.298;10.172;2023-08-07T08:17:50;14.53;;;4.33;;
2462;SDS011;1243;54.298;10.172;2023-08-07T08:20:16;8.40;;;3.80;;
2462;SDS011;1243;54.298;10.172;2023-08-07T08:22:43;7.50;;;3.40;;
2462;SDS011;1243;54.298;10.172;2023-08-07T08:25:10;15.80;;;3.83;;
2462;SDS011;1243;54.298;10.172;2023-08-07T08:27:37;11.33;;;3.47;;
2462;SDS011;1243;54.298;10.172;2023-08-07T08:30:03;7.90;;;3.10;;
2462;SDS011;1243;54.298;10.172;2023-08-07T08:32:29;11.33;;;3.77;;
2462;SDS011;1243;54.298;10.172;2023-08-07T08:34:55;15.83;;;3.87;;
2462;SDS011;1243;54.298;10.172;2023-08-07T08:37:21;13.50;;;4.47;;
2462;SDS011;1243;54.298;10.172;2023-08-07T08:39:47;8.53;;;3.17;;
2462;SDS011;1243;54.298;10.172;2023-08-07T08:42:13;11.17;;;4.33;;
2462;SDS011;1243;54.298;10.172;2023-08-07T08:44:45;23.83;;;5.40;;
2462;SDS011;1243;54.298;10.172;2023-08-07T08:47:16;15.17;;;4.10;;
2462;SDS011;1243;54.298;10.172;2023-08-07T08:49:54;19.20;;;4.07;;
2462;SDS011;1243;54.298;10.172;2023-08-07T08:52:37;13.37;;;3.80;;
2462;SDS011;1243;54.298;10.172;2023-08-07T08:55:05;12.80;;;3.40;;
2462;SDS011;1243;54.298;10.172;2023-08-07T08:57:32;9.67;;;3.67;;
2462;SDS011;1243;54.298;10.172;2023-08-07T08:59:59;10.57;;;3.53;;
2462;SDS011;1243;54.298;10.172;2023-08-07T09:02:25;8.03;;;2.97;;
2462;SDS011;1243;54.298;10.172;2023-08-07T09:04:52;9.10;;;3.93;;
2462;SDS011;1243;54.298;10.172;2023-08-07T09:07:18;6.50;;;3.33;;
2462;SDS011;1243;54.298;10.172;2023-08-07T09:09:45;12.23;;;3.40;;
2462;SDS011;1243;54.298;10.172;2023-08-07T09:12:16;5.80;;;3.17;;
2462;SDS011;1243;54.298;10.172;2023-08-07T09:14:47;12.30;;;3.43;;
2462;SDS011;1243;54.298;10.172;2023-08-07T09:17:18;8.87;;;4.03;;
2462;SDS011;1243;54.298;10.172;2023-08-07T09:19:46;12.20;;;3.47;;
2462;SDS011;1243;54.298;10.172;2023-08-07T09:22:11;16.57;;;3.60;;
2462;SDS011;1243;54.298;10.172;2023-08-07T09:24:37;4.10;;;2.93;;
2462;SDS011;1243;54.298;10.172;2023-08-07T09:27:03;10.77;;;4.50;;
2462;SDS011;1243;54.298;10.172;2023-08-07T09:29:32;14.40;;;4.67;;
2462;SDS011;1243;54.298;10.172;2023-08-07T09:32:05;7.50;;;3.93;;
2462;SDS011;1243;54.298;10.172;2023-08-07T09:34:33;6.87;;;3.10;;
2462;SDS011;1243;54.298;10.172;2023-08-07T09:36:58;12.90;;;3.20;;
2462;SDS011;1243;54.298;10.172;2023-08-07T09:39:24;6.60;;;4.00;;
2462;SDS011;1243;54.298;10.172;2023-08-07T09:41:53;10.17;;;4.60;;
2462;SDS011;1243;54.298;10.172;2023-08-07T09:44:18;7.70;;;3.33;;
2462;SDS011;1243;54.298;10.172;2023-08-07T09:46:46;19.13;;;4.07;;
2462;SDS011;1243;54.298;10.172;2023-08-07T09:49:12;13.70;;;3.80;;
2462;SDS011;1243;54.298;10.172;2023-08-07T09:51:44;9.50;;;3.50;;
2462;SDS011;1243;54.298;10.172;2023-08-07T09:54:11;11.27;;;4.00;;
2462;SDS011;1243;54.298;10.172;2023-08-07T09:56:38;6.23;;;3.50;;
2462;SDS011;1243;54.298;10.172;2023-08-07T09:59:07;10.90;;;3.50;;
2462;SDS011;1243;54.298;10.172;2023-08-07T10:01:36;7.40;;;3.37;;
2462;SDS011;1243;54.298;10.172;2023-08-07T10:04:03;12.73;;;3.63;;
2462;SDS011;1243;54.298;10.172;2023-08-07T10:06:30;12.07;;;3.77;;
2462;SDS011;1243;54.298;10.172;2023-08-07T10:08:56;12.37;;;4.50;;
2462;SDS011;1243;54.298;10.172;2023-08-07T10:11:23;10.60;;;3.17;;
2462;SDS011;1243;54.298;10.172;2023-08-07T10:13:49;13.73;;;3.67;;
2462;SDS011;1243;54.298;10.172;2023-08-07T10:16:15;13.93;;;3.17;;
2462;SDS011;1243;54.298;10.172;2023-08-07T10:18:40;16.67;;;3.33;;
2462;SDS011;1243;54.298;10.172;2023-08-07T10:21:06;10.90;;;3.53;;
2462;SDS011;1243;54.298;10.172;2023-08-07T10:23:35;9.00;;;2.63;;
2462;SDS011;1243;54.298;10.172;2023-08-07T10:26:04;8.20;;;3.27;;
2462;SDS011;1243;54.298;10.172;2023-08-07T10:28:35;12.80;;;3.77;;
2462;SDS011;1243;54.298;10.172;2023-08-07T10:31:03;10.73;;;3.50;;
2462;SDS011;1243;54.298;10.172;2023-08-07T10:33:31;9.00;;;2.80;;
2462;SDS011;1243;54.298;10.172;2023-08-07T10:35:58;13.70;;;3.20;;
2462;SDS011;1243;54.298;10.172;2023-08-07T10:38:29;5.83;;;3.63;;
2462;SDS011;1243;54.298;10.172;2023-08-07T10:43:26;11.00;;;2.90;;
2462;SDS011;1243;54.298;10.172;2023-08-07T10:45:54;8.60;;;3.07;;
2462;SDS011;1243;54.298;10.172;2023-08-07T10:48:27;5.97;;;4.60;;
2462;SDS011;1243;54.298;10.172;2023-08-07T10:53:32;10.17;;;2.90;;
2462;SDS011;1243;54.298;10.172;2023-08-07T10:56:00;12.30;;;3.57;;
2462;SDS011;1243;54.298;10.172;2023-08-07T10:58:31;5.90;;;2.57;;
2462;SDS011;1243;54.298;10.172;2023-08-07T11:03:58;7.10;;;2.93;;
2462;SDS011;1243;54.298;10.172;2023-08-07T11:06:26;7.87;;;2.37;;
2462;SDS011;1243;54.298;10.172;2023-08-07T11:08:56;5.23;;;2.73;;
2462;SDS011;1243;54.298;10.172;2023-08-07T11:11:22;10.37;;;2.10;;
2462;SDS011;1243;54.298;10.172;2023-08-07T11:13:48;5.73;;;2.00;;
2462;SDS011;1243;54.298;10.172;2023-08-07T11:16:14;6.73;;;2.43;;
2462;SDS011;1243;54.298;10.172;2023-08-07T11:18:40;5.03;;;1.93;;
2462;SDS011;1243;54.298;10.172;2023-08-07T11:21:08;4.33;;;2.37;;
2462;SDS011;1243;54.298;10.172;2023-08-07T11:23:38;5.47;;;2.53;;
2462;SDS011;1243;54.298;10.172;2023-08-07T11:26:07;8.20;;;2.20;;
2462;SDS011;1243;54.298;10.172;2023-08-07T11:28:34;10.53;;;2.13;;
2462;SDS011;1243;54.298;10.172;2023-08-07T11:31:00;6.10;;;2.40;;
2462;SDS011;1243;54.298;10.172;2023-08-07T11:33:27;4.70;;;2.50;;
2462;SDS011;1243;54.298;10.172;2023-08-07T11:35:54;6.80;;;2.23;;
2462;SDS011;1243;54.298;10.172;2023-08-07T11:38:33;3.97;;;2.60;;
2462;SDS011;1243;54.298;10.172;2023-08-07T11:41:01;4.53;;;2.37;;
2462;SDS011;1243;54.298;10.172;2023-08-07T11:43:28;5.73;;;2.23;;
2462;SDS011;1243;54.298;10.172;2023-08-07T11:45:56;8.20;;;2.93;;
2462;SDS011;1243;54.298;10.172;2023-08-07T11:48:29;8.53;;;3.03;;
2462;SDS011;1243;54.298;10.172;2023-08-07T11:50:56;8.50;;;3.17;;
2462;SDS011;1243;54.298;10.172;2023-08-07T11:53:27;8.60;;;2.33;;
2462;SDS011;1243;54.298;10.172;2023-08-07T11:58:27;5.17;;;2.80;;
2462;SDS011;1243;54.298;10.172;2023-08-07T12:00:58;11.23;;;2.83;;
2462;SDS011;1243;54.298;10.172;2023-08-07T12:03:31;10.20;;;6.10;;
2462;SDS011;1243;54.298;10.172;2023-08-07T12:06:01;11.03;;;2.83;;
2462;SDS011;1243;54.298;10.172;2023-08-07T12:08:31;5.17;;;2.43;;
2462;SDS011;1243;54.298;10.172;2023-08-07T12:11:00;4.27;;;2.00;;
2462;SDS011;1243;54.298;10.172;2023-08-07T12:13:30;9.03;;;2.27;;
2462;SDS011;1243;54.298;10.172;2023-08-07T12:16:00;8.70;;;2.43;;
2462;SDS011;1243;54.298;10.172;2023-08-07T12:18:27;16.43;;;2.97;;
2462;SDS011;1243;54.298;10.172;2023-08-07T12:20:57;3.77;;;2.60;;
2462;SDS011;1243;54.298;10.172;2023-08-07T12:23:27;8.50;;;2.90;;
2462;SDS011;1243;54.298;10.172;2023-08-07T12:25:53;9.63;;;2.80;;
2462;SDS011;1243;54.298;10.172;2023-08-07T12:28:19;7.80;;;3.23;;
2462;SDS011;1243;54.298;10.172;2023-08-07T12:30:46;9.27;;;2.40;;
2462;SDS011;1243;54.298;10.172;2023-08-07T12:33:12;5.80;;;2.83;;
2462;SDS011;1243;54.298;10.172;2023-08-07T12:35:38;6.63;;;2.40;;
2462;SDS011;1243;54.298;10.172;2023-08-07T12:38:05;6.27;;;2.57;;
2462;SDS011;1243;54.298;10.172;2023-08-07T12:40:31;5.47;;;2.87;;
2462;SDS011;1243;54.298;10.172;2023-08-07T12:43:00;4.90;;;2.77;;
2462;SDS011;1243;54.298;10.172;2023-08-07T12:45:25;4.77;;;2.20;;
2462;SDS011;1243;54.298;10.172;2023-08-07T12:47:51;8.00;;;2.07;;
2462;SDS011;1243;54.298;10.172;2023-08-07T12:50:17;9.43;;;2.80;;
2462;SDS011;1243;54.298;10.172;2023-08-07T12:52:43;8.40;;;2.57;;
2462;SDS011;1243;54.298;10.172;2023-08-07T12:55:09;12.23;;;3.10;;
2462;SDS011;1243;54.298;10.172;2023-08-07T12:57:36;3.93;;;2.43;;
2462;SDS011;1243;54.298;10.172;2023-08-07T13:00:06;8.63;;;2.80;;
2462;SDS011;1243;54.298;10.172;2023-08-07T13:02:33;5.30;;;2.60;;
2462;SDS011;1243;54.298;10.172;2023-08-07T13:04:59;4.90;;;2.53;;
2462;SDS011;1243;54.298;10.172;2023-08-07T13:07:25;8.30;;;2.70;;
2462;SDS011;1243;54.298;10.172;2023-08-07T13:09:51;9.30;;;2.70;;
2462;SDS011;1243;54.298;10.172;2023-08-07T13:12:16;6.80;;;2.43;;
2462;SDS011;1243;54.298;10.172;2023-08-07T13:14:42;7.20;;;2.90;;
2462;SDS011;1243;54.298;10.172;2023-08-07T13:17:08;8.40;;;3.07;;
2462;SDS011;1243;54.298;10.172;2023-08-07T13:19:33;8.80;;;3.00;;
2462;SDS011;1243;54.298;10.172;2023-08-07T13:21:59;10.70;;;3.00;;
2462;SDS011;1243;54.298;10.172;2023-08-07T13:24:25;8.90;;;3.30;;
2462;SDS011;1243;54.298;10.172;2023-08-07T13:26:50;10.33;;;3.07;;
2462;SDS011;1243;54.298;10.172;2023-08-07T13:29:16;11.60;;;2.90;;
2462;SDS011;1243;54.298;10.172;2023-08-07T13:31:42;5.60;;;2.00;;
2462;SDS011;1243;54.298;10.172;2023-08-07T13:34:10;10.57;;;3.03;;
2462;SDS011;1243;54.298;10.172;2023-08-07T13:36:36;5.37;;;3.27;;
2462;SDS011;1243;54.298;10.172;2023-08-07T13:39:03;16.90;;;3.00;;
2462;SDS011;1243;54.298;10.172;2023-08-07T13:41:32;8.43;;;4.40;;
2462;SDS011;1243;54.298;10.172;2023-08-07T13:43:58;9.00;;;2.90;;
2462;SDS011;1243;54.298;10.172;2023-08-07T13:46:24;10.40;;;3.27;;
2462;SDS011;1243;54.298;10.172;2023-08-07T13:48:50;9.63;;;3.27;;
2462;SDS011;1243;54.298;10.172;2023-08-07T13:51:16;10.40;;;3.47;;
2462;SDS011;1243;54.298;10.172;2023-08-07T13:53:45;5.50;;;2.63;;
2462;SDS011;1243;54.298;10.172;2023-08-07T13:56:10;6.90;;;2.63;;
2462;SDS011;1243;54.298;10.172;2023-08-07T13:58:41;8.63;;;3.63;;
2462;SDS011;1243;54.298;10.172;2023-08-07T14:01:07;12.90;;;2.97;;
2462;SDS011;1243;54.298;10.172;2023-08-07T14:03:33;19.53;;;3.50;;
2462;SDS011;1243;54.298;10.172;2023-08-07T14:06:02;8.00;;;2.70;;
2462;SDS011;1243;54.298;10.172;2023-08-07T14:08:28;10.03;;;4.10;;
2462;SDS011;1243;54.298;10.172;2023-08-07T14:10:53;7.80;;;2.73;;
2462;SDS011;1243;54.298;10.172;2023-08-07T14:13:19;8.17;;;3.23;;
2462;SDS011;1243;54.298;10.172;2023-08-07T14:15:45;13.27;;;3.47;;
2462;SDS011;1243;54.298;10.172;2023-08-07T14:18:11;12.30;;;3.63;;
2462;SDS011;1243;54.298;10.172;2023-08-07T14:20:39;10.50;;;3.90;;
2462;SDS011;1243;54.298;10.172;2023-08-07T14:23:05;4.83;;;2.50;;
2462;SDS011;1243;54.298;10.172;2023-08-07T14:25:31;6.90;;;2.40;;
2462;SDS011;1243;54.298;10.172;2023-08-07T14:27:57;11.03;;;3.03;;
2462;SDS011;1243;54.298;10.172;2023-08-07T14:30:23;3.53;;;2.37;;
2462;SDS011;1243;54.298;10.172;2023-08-07T14:32:49;6.13;;;2.43;;
2462;SDS011;1243;54.298;10.172;2023-08-07T14:35:14;5.03;;;2.20;;
2462;SDS011;1243;54.298;10.172;2023-08-07T14:37:40;6.30;;;2.83;;
2462;SDS011;1243;54.298;10.172;2023-08-07T14:40:06;9.10;;;3.00;;
2462;SDS011;1243;54.298;10.172;2023-08-07T14:42:32;7.33;;;2.70;;
2462;SDS011;1243;54.298;10.172;2023-08-07T14:44:58;8.10;;;2.73;;
2462;SDS011;1243;54.298;10.172;2023-08-07T14:47:24;8.23;;;2.37;;
2462;SDS011;1243;54.298;10.172;2023-08-07T14:49:50;3.27;;;2.30;;
2462;SDS011;1243;54.298;10.172;2023-08-07T14:52:16;4.67;;;2.67;;
2462;SDS011;1243;54.298;10.172;2023-08-07T14:54:42;7.83;;;3.77;;
2462;SDS011;1243;54.298;10.172;2023-08-07T14:57:08;7.17;;;2.97;;
2462;SDS011;1243;54.298;10.172;2023-08-07T14:59:33;4.40;;;3.30;;
2462;SDS011;1243;54.298;10.172;2023-08-07T15:01:59;10.23;;;3.03;;
2462;SDS011;1243;54.298;10.172;2023-08-07T15:04:25;18.73;;;3.53;;
2462;SDS011;1243;54.298;10.172;2023-08-07T15:06:51;13.70;;;3.30;;
2462;SDS011;1243;54.298;10.172;2023-08-07T15:09:17;13.77;;;3.77;;
2462;SDS011;1243;54.298;10.172;2023-08-07T15:11:46;14.30;;;3.87;;
2462;SDS011;1243;54.298;10.172;2023-08-07T15:14:12;9.90;;;3.20;;
2462;SDS011;1243;54.298;10.172;2023-08-07T15:16:38;8.00;;;3.30;;